sensor_id;sensor_type;location;lat;lon;timestamp;P1;durP1;ratioP1;P2;durP2;ratioP2
14121;SDS011;7139;48.114;11.442;2023-08-31T00:00:51;2.60;;;2.40;;
14121;SDS011;7139;48.114;11.442;2023-08-31T00:03:18;2.30;;;2.00;;
14121;SDS011;7139;48.114;11.442;2023-08-31T00:05:44;2.40;;;2.20;;
14121;SDS011;7139;48.114;11.442;2023-08-31T00:08:13;2.30;;;2.07;;
14121;SDS011;7139;48.114;11.442;2023-08-31T00:10:40;2.20;;;2.10;;
14121;SDS011;7139;48.114;11.442;2023-08-31T00:13:06;2.57;;;2.37;;
14121;SDS011;7139;48.114;11.442;2023-08-31T00:15:33;4.23;;;2.30;;
14121;SDS011;7139;48.114;11.442;2023-08-31T00:18:00;2.50;;;2.30;;
14121;SDS011;7139;48.114;11.442;2023-08-31T00:20:28;2.27;;;2.13;;
14121;SDS011;7139;48.114;11.442;2023-08-31T00:22:56;2.43;;;2.23;;
14121;SDS011;7139;48.114;11.442;2023-08-31T00:25:24;2.90;;;2.20;;
14121;SDS011;7139;48.114;11.442;2023-08-31T00:27:51;3.17;;;2.50;;
14121;SDS011;7139;48.114;11.442;2023-08-31T00:30:19;2.63;;;2.23;;
14121;SDS011;7139;48.114;11.442;2023-08-31T00:32:46;2.90;;;2.70;;
14121;SDS011;7139;48.114;11.442;2023-08-31T00:35:13;2.87;;;2.50;;
14121;SDS011;7139;48.114;11.442;2023-08-31T00:37:40;4.53;;;2.70;;
14121;SDS011;7139;48.114;11.442;2023-08-31T00:40:07;2.57;;;2.37;;
14121;SDS011;7139;48.114;11.442;2023-08-31T00:42:38;4.80;;;2.40;;
14121;SDS011;7139;48.114;11.442;2023-08-31T00:45:05;2.90;;;2.57;;
14121;SDS011;7139;48.114;11.442;2023-08-31T00:47:32;2.90;;;2.30;;
14121;SDS011;7139;48.114;11.442;2023-08-31T00:50:00;3.07;;;2.50;;
14121;SDS011;7139;48.114;11.442;2023-08-31T00:52:27;2.83;;;2.57;;
14121;SDS011;7139;48.114;11.442;2023-08-31T00:54:54;2.97;;;2.67;;
14121;SDS011;7139;48.114;11.442;2023-08-31T00:57:21;3.73;;;2.33;;
14121;SDS011;7139;48.114;11.442;2023-08-31T00:59:49;2.83;;;2.50;;
14121;SDS011;7139;48.114;11.442;2023-08-31T01:02:17;2.83;;;2.47;;
14121;SDS011;7139;48.114;11.442;2023-08-31T01:04:51;2.73;;;2.53;;
14121;SDS011;7139;48.114;11.442;2023-08-31T01:07:26;2.97;;;2.70;;
14121;SDS011;7139;48.114;11.442;2023-08-31T01:10:03;3.53;;;2.80;;
14121;SDS011;7139;48.114;11.442;2023-08-31T01:12:39;4.10;;;2.73;;
14121;SDS011;7139;48.114;11.442;2023-08-31T01:15:11;2.60;;;2.40;;
14121;SDS011;7139;48.114;11.442;2023-08-31T01:17:40;3.07;;;2.80;;
14121;SDS011;7139;48.114;11.442;2023-08-31T01:20:10;2.63;;;2.43;;
14121;SDS011;7139;48.114;11.442;2023-08-31T01:22:43;2.80;;;2.60;;
14121;SDS011;7139;48.114;11.442;2023-08-31T01:25:14;2.77;;;2.57;;
14121;SDS011;7139;48.114;11.442;2023-08-31T01:27:42;2.80;;;2.60;;
14121;SDS011;7139;48.114;11.442;2023-08-31T01:30:10;2.87;;;2.67;;
14121;SDS011;7139;48.114;11.442;2023-08-31T01:32:37;3.57;;;2.73;;
14121;SDS011;7139;48.114;11.442;2023-08-31T01:35:10;3.10;;;2.60;;
14121;SDS011;7139;48.114;11.442;2023-08-31T01:37:39;2.90;;;2.70;;
14121;SDS011;7139;48.114;11.442;2023-08-31T01:40:12;3.73;;;2.70;;
14121;SDS011;7139;48.114;11.442;2023-08-31T01:42:43;3.73;;;2.43;;
14121;SDS011;7139;48.114;11.442;2023-08-31T01:45:14;4.10;;;2.60;;
14121;SDS011;7139;48.114;11.442;2023-08-31T01:47:45;2.97;;;2.63;;
14121;SDS011;7139;48.114;11.442;2023-08-31T01:50:12;3.03;;;2.50;;
14121;SDS011;7139;48.114;11.442;2023-08-31T01:52:39;4.13;;;2.60;;
14121;SDS011;7139;48.114;11.442;2023-08-31T01:55:06;4.63;;;2.77;;
14121;SDS011;7139;48.114;11.442;2023-08-31T01:57:35;3.10;;;2.90;;
14121;SDS011;7139;48.114;11.442;2023-08-31T02:00:01;2.73;;;2.53;;
14121;SDS011;7139;48.114;11.442;2023-08-31T02:02:31;3.20;;;2.90;;
14121;SDS011;7139;48.114;11.442;2023-08-31T02:04:58;3.10;;;2.90;;
14121;SDS011;7139;48.114;11.442;2023-08-31T02:07:26;2.93;;;2.43;;
14121;SDS011;7139;48.114;11.442;2023-08-31T02:09:53;3.10;;;2.60;;
14121;SDS011;7139;48.114;11.442;2023-08-31T02:12:20;2.70;;;2.50;;
14121;SDS011;7139;48.114;11.442;2023-08-31T02:14:48;2.60;;;2.40;;
14121;SDS011;7139;48.114;11.442;2023-08-31T02:17:15;3.00;;;2.80;;
14121;SDS011;7139;48.114;11.442;2023-08-31T02:19:41;2.90;;;2.70;;
14121;SDS011;7139;48.114;11.442;2023-08-31T02:22:08;2.80;;;2.60;;
14121;SDS011;7139;48.114;11.442;2023-08-31T02:24:35;3.33;;;2.70;;
14121;SDS011;7139;48.114;11.442;2023-08-31T02:27:02;3.10;;;2.53;;
14121;SDS011;7139;48.114;11.442;2023-08-31T02:29:29;3.40;;;3.10;;
14121;SDS011;7139;48.114;11.442;2023-08-31T02:31:57;4.00;;;3.70;;
14121;SDS011;7139;48.114;11.442;2023-08-31T02:34:24;3.80;;;3.50;;
14121;SDS011;7139;48.114;11.442;2023-08-31T02:36:51;5.80;;;4.20;;
14121;SDS011;7139;48.114;11.442;2023-08-31T02:39:17;4.60;;;4.20;;
14121;SDS011;7139;48.114;11.442;2023-08-31T02:41:44;4.27;;;3.87;;
14121;SDS011;7139;48.114;11.442;2023-08-31T02:44:11;4.87;;;4.27;;
14121;SDS011;7139;48.114;11.442;2023-08-31T02:46:38;4.97;;;4.57;;
14121;SDS011;7139;48.114;11.442;2023-08-31T02:49:06;5.07;;;4.50;;
14121;SDS011;7139;48.114;11.442;2023-08-31T02:51:32;4.50;;;4.20;;
14121;SDS011;7139;48.114;11.442;2023-08-31T02:53:59;4.90;;;4.50;;
14121;SDS011;7139;48.114;11.442;2023-08-31T02:56:26;4.70;;;4.30;;
14121;SDS011;7139;48.114;11.442;2023-08-31T02:58:53;4.47;;;4.17;;
14121;SDS011;7139;48.114;11.442;2023-08-31T03:01:20;4.10;;;3.80;;
14121;SDS011;7139;48.114;11.442;2023-08-31T03:03:47;4.27;;;3.70;;
14121;SDS011;7139;48.114;11.442;2023-08-31T03:06:15;4.00;;;3.70;;
14121;SDS011;7139;48.114;11.442;2023-08-31T03:08:42;4.00;;;3.70;;
14121;SDS011;7139;48.114;11.442;2023-08-31T03:11:09;3.57;;;3.07;;
14121;SDS011;7139;48.114;11.442;2023-08-31T03:13:35;3.13;;;2.93;;
14121;SDS011;7139;48.114;11.442;2023-08-31T03:16:02;3.37;;;3.10;;
14121;SDS011;7139;48.114;11.442;2023-08-31T03:18:29;2.97;;;2.70;;
14121;SDS011;7139;48.114;11.442;2023-08-31T03:20:56;2.67;;;2.47;;
14121;SDS011;7139;48.114;11.442;2023-08-31T03:23:24;2.80;;;2.60;;
14121;SDS011;7139;48.114;11.442;2023-08-31T03:25:51;2.53;;;2.30;;
14121;SDS011;7139;48.114;11.442;2023-08-31T03:28:18;2.57;;;2.37;;
14121;SDS011;7139;48.114;11.442;2023-08-31T03:30:46;2.97;;;2.40;;
14121;SDS011;7139;48.114;11.442;2023-08-31T03:33:20;3.00;;;2.70;;
14121;SDS011;7139;48.114;11.442;2023-08-31T03:35:47;2.97;;;2.50;;
14121;SDS011;7139;48.114;11.442;2023-08-31T03:38:14;2.70;;;2.37;;
14121;SDS011;7139;48.114;11.442;2023-08-31T03:40:42;2.33;;;2.13;;
14121;SDS011;7139;48.114;11.442;2023-08-31T03:43:09;2.40;;;2.20;;
14121;SDS011;7139;48.114;11.442;2023-08-31T03:45:36;2.90;;;2.60;;
14121;SDS011;7139;48.114;11.442;2023-08-31T03:48:03;2.20;;;2.10;;
14121;SDS011;7139;48.114;11.442;2023-08-31T03:50:30;2.13;;;2.00;;
14121;SDS011;7139;48.114;11.442;2023-08-31T03:52:56;2.73;;;2.20;;
14121;SDS011;7139;48.114;11.442;2023-08-31T03:55:23;2.60;;;2.40;;
14121;SDS011;7139;48.114;11.442;2023-08-31T03:57:51;2.70;;;2.50;;
14121;SDS011;7139;48.114;11.442;2023-08-31T04:00:18;2.57;;;2.37;;
14121;SDS011;7139;48.114;11.442;2023-08-31T04:02:45;2.50;;;2.30;;
14121;SDS011;7139;48.114;11.442;2023-08-31T04:05:12;2.20;;;2.00;;
14121;SDS011;7139;48.114;11.442;2023-08-31T04:07:40;2.70;;;2.50;;
14121;SDS011;7139;48.114;11.442;2023-08-31T04:10:07;2.43;;;2.23;;
14121;SDS011;7139;48.114;11.442;2023-08-31T04:12:35;2.37;;;2.17;;
14121;SDS011;7139;48.114;11.442;2023-08-31T04:15:04;2.97;;;2.43;;
14121;SDS011;7139;48.114;11.442;2023-08-31T04:17:31;3.50;;;2.60;;
14121;SDS011;7139;48.114;11.442;2023-08-31T04:19:58;2.93;;;2.60;;
14121;SDS011;7139;48.114;11.442;2023-08-31T04:22:25;2.77;;;2.57;;
14121;SDS011;7139;48.114;11.442;2023-08-31T04:24:52;2.70;;;2.50;;
14121;SDS011;7139;48.114;11.442;2023-08-31T04:27:19;2.90;;;2.70;;
14121;SDS011;7139;48.114;11.442;2023-08-31T04:29:46;3.43;;;2.70;;
14121;SDS011;7139;48.114;11.442;2023-08-31T04:32:14;2.80;;;2.60;;
14121;SDS011;7139;48.114;11.442;2023-08-31T04:34:41;3.63;;;2.90;;
14121;SDS011;7139;48.114;11.442;2023-08-31T04:37:08;2.97;;;2.77;;
14121;SDS011;7139;48.114;11.442;2023-08-31T04:39:35;2.80;;;2.60;;
14121;SDS011;7139;48.114;11.442;2023-08-31T04:42:01;3.53;;;2.70;;
14121;SDS011;7139;48.114;11.442;2023-08-31T04:44:28;3.30;;;3.00;;
14121;SDS011;7139;48.114;11.442;2023-08-31T04:46:55;2.93;;;2.73;;
14121;SDS011;7139;48.114;11.442;2023-08-31T04:49:23;3.17;;;2.90;;
14121;SDS011;7139;48.114;11.442;2023-08-31T04:51:51;3.50;;;3.20;;
14121;SDS011;7139;48.114;11.442;2023-08-31T04:54:18;4.43;;;3.17;;
14121;SDS011;7139;48.114;11.442;2023-08-31T04:56:45;3.33;;;3.03;;
14121;SDS011;7139;48.114;11.442;2023-08-31T04:59:12;3.20;;;2.90;;
14121;SDS011;7139;48.114;11.442;2023-08-31T05:01:39;3.73;;;3.20;;
14121;SDS011;7139;48.114;11.442;2023-08-31T05:04:07;2.77;;;2.57;;
14121;SDS011;7139;48.114;11.442;2023-08-31T05:06:35;3.07;;;2.87;;
14121;SDS011;7139;48.114;11.442;2023-08-31T05:09:01;3.30;;;3.03;;
14121;SDS011;7139;48.114;11.442;2023-08-31T05:11:30;3.03;;;2.77;;
14121;SDS011;7139;48.114;11.442;2023-08-31T05:13:57;3.40;;;2.97;;
14121;SDS011;7139;48.114;11.442;2023-08-31T05:16:24;3.50;;;3.20;;
14121;SDS011;7139;48.114;11.442;2023-08-31T05:18:51;3.97;;;3.30;;
14121;SDS011;7139;48.114;11.442;2023-08-31T05:21:17;4.20;;;3.00;;
14121;SDS011;7139;48.114;11.442;2023-08-31T05:23:46;3.93;;;3.47;;
14121;SDS011;7139;48.114;11.442;2023-08-31T05:26:12;3.50;;;3.10;;
14121;SDS011;7139;48.114;11.442;2023-08-31T05:28:40;3.43;;;3.23;;
14121;SDS011;7139;48.114;11.442;2023-08-31T05:31:08;3.13;;;2.93;;
14121;SDS011;7139;48.114;11.442;2023-08-31T05:33:35;4.30;;;3.37;;
14121;SDS011;7139;48.114;11.442;2023-08-31T05:36:01;4.53;;;3.70;;
14121;SDS011;7139;48.114;11.442;2023-08-31T05:38:29;3.87;;;3.47;;
14121;SDS011;7139;48.114;11.442;2023-08-31T05:41:04;3.40;;;3.17;;
14121;SDS011;7139;48.114;11.442;2023-08-31T05:43:32;3.17;;;2.97;;
14121;SDS011;7139;48.114;11.442;2023-08-31T05:45:59;3.70;;;3.40;;
14121;SDS011;7139;48.114;11.442;2023-08-31T05:48:26;3.90;;;3.60;;
14121;SDS011;7139;48.114;11.442;2023-08-31T05:50:53;3.90;;;3.50;;
14121;SDS011;7139;48.114;11.442;2023-08-31T05:53:20;3.80;;;3.50;;
14121;SDS011;7139;48.114;11.442;2023-08-31T05:55:47;4.47;;;4.07;;
14121;SDS011;7139;48.114;11.442;2023-08-31T05:58:15;3.70;;;3.40;;
14121;SDS011;7139;48.114;11.442;2023-08-31T06:00:42;4.13;;;3.73;;
14121;SDS011;7139;48.114;11.442;2023-08-31T06:03:09;4.10;;;3.70;;
14121;SDS011;7139;48.114;11.442;2023-08-31T06:05:36;4.23;;;3.87;;
14121;SDS011;7139;48.114;11.442;2023-08-31T06:08:03;3.93;;;3.63;;
14121;SDS011;7139;48.114;11.442;2023-08-31T06:10:30;4.83;;;4.40;;
14121;SDS011;7139;48.114;11.442;2023-08-31T06:12:57;4.10;;;3.70;;
14121;SDS011;7139;48.114;11.442;2023-08-31T06:15:25;4.50;;;4.10;;
14121;SDS011;7139;48.114;11.442;2023-08-31T06:17:52;4.93;;;4.53;;
14121;SDS011;7139;48.114;11.442;2023-08-31T06:20:19;4.47;;;4.07;;
14121;SDS011;7139;48.114;11.442;2023-08-31T06:22:46;4.70;;;4.20;;
14121;SDS011;7139;48.114;11.442;2023-08-31T06:25:13;4.47;;;4.07;;
14121;SDS011;7139;48.114;11.442;2023-08-31T06:27:43;4.43;;;4.03;;
14121;SDS011;7139;48.114;11.442;2023-08-31T06:30:10;4.00;;;3.70;;
14121;SDS011;7139;48.114;11.442;2023-08-31T06:32:42;4.37;;;3.97;;
14121;SDS011;7139;48.114;11.442;2023-08-31T06:35:09;3.57;;;3.27;;
14121;SDS011;7139;48.114;11.442;2023-08-31T06:37:36;3.87;;;3.50;;
14121;SDS011;7139;48.114;11.442;2023-08-31T06:40:04;4.00;;;3.57;;
14121;SDS011;7139;48.114;11.442;2023-08-31T06:42:31;3.33;;;3.03;;
14121;SDS011;7139;48.114;11.442;2023-08-31T06:44:58;2.87;;;2.67;;
14121;SDS011;7139;48.114;11.442;2023-08-31T06:47:25;3.80;;;3.40;;
14121;SDS011;7139;48.114;11.442;2023-08-31T06:49:53;3.00;;;2.80;;
14121;SDS011;7139;48.114;11.442;2023-08-31T06:52:20;3.40;;;3.10;;
14121;SDS011;7139;48.114;11.442;2023-08-31T06:54:46;3.43;;;3.13;;
14121;SDS011;7139;48.114;11.442;2023-08-31T06:57:13;3.40;;;3.10;;
14121;SDS011;7139;48.114;11.442;2023-08-31T06:59:40;3.13;;;2.90;;
14121;SDS011;7139;48.114;11.442;2023-08-31T07:02:07;3.53;;;3.23;;
14121;SDS011;7139;48.114;11.442;2023-08-31T07:04:33;3.77;;;3.20;;
14121;SDS011;7139;48.114;11.442;2023-08-31T07:07:02;4.57;;;3.17;;
14121;SDS011;7139;48.114;11.442;2023-08-31T07:09:30;3.27;;;3.00;;
14121;SDS011;7139;48.114;11.442;2023-08-31T07:11:56;2.63;;;2.43;;
14121;SDS011;7139;48.114;11.442;2023-08-31T07:14:24;5.23;;;3.10;;
14121;SDS011;7139;48.114;11.442;2023-08-31T07:16:51;3.23;;;2.97;;
14121;SDS011;7139;48.114;11.442;2023-08-31T07:19:17;3.50;;;3.20;;
14121;SDS011;7139;48.114;11.442;2023-08-31T07:21:44;3.10;;;2.90;;
14121;SDS011;7139;48.114;11.442;2023-08-31T07:24:14;4.17;;;2.93;;
14121;SDS011;7139;48.114;11.442;2023-08-31T07:26:40;3.00;;;2.70;;
14121;SDS011;7139;48.114;11.442;2023-08-31T07:29:07;3.23;;;2.90;;
14121;SDS011;7139;48.114;11.442;2023-08-31T07:31:34;4.60;;;3.33;;
14121;SDS011;7139;48.114;11.442;2023-08-31T07:34:01;3.87;;;3.00;;
14121;SDS011;7139;48.114;11.442;2023-08-31T07:36:28;3.17;;;2.87;;
14121;SDS011;7139;48.114;11.442;2023-08-31T07:38:55;3.20;;;3.00;;
14121;SDS011;7139;48.114;11.442;2023-08-31T07:41:24;4.67;;;2.87;;
14121;SDS011;7139;48.114;11.442;2023-08-31T07:43:50;3.67;;;2.97;;
14121;SDS011;7139;48.114;11.442;2023-08-31T07:46:17;3.77;;;2.87;;
14121;SDS011;7139;48.114;11.442;2023-08-31T07:48:44;3.00;;;2.70;;
14121;SDS011;7139;48.114;11.442;2023-08-31T07:51:13;3.20;;;2.90;;
14121;SDS011;7139;48.114;11.442;2023-08-31T07:53:40;3.67;;;2.80;;
14121;SDS011;7139;48.114;11.442;2023-08-31T07:56:06;4.87;;;2.70;;
14121;SDS011;7139;48.114;11.442;2023-08-31T07:58:35;3.17;;;2.70;;
14121;SDS011;7139;48.114;11.442;2023-08-31T08:01:01;3.80;;;2.70;;
14121;SDS011;7139;48.114;11.442;2023-08-31T08:03:30;3.73;;;2.80;;
14121;SDS011;7139;48.114;11.442;2023-08-31T08:05:56;2.87;;;2.37;;
14121;SDS011;7139;48.114;11.442;2023-08-31T08:08:23;2.90;;;2.60;;
14121;SDS011;7139;48.114;11.442;2023-08-31T08:10:51;3.30;;;2.50;;
14121;SDS011;7139;48.114;11.442;2023-08-31T08:13:18;4.03;;;2.43;;
14121;SDS011;7139;48.114;11.442;2023-08-31T08:15:47;2.93;;;2.33;;
14121;SDS011;7139;48.114;11.442;2023-08-31T08:18:13;4.53;;;2.57;;
14121;SDS011;7139;48.114;11.442;2023-08-31T08:20:40;2.40;;;2.10;;
14121;SDS011;7139;48.114;11.442;2023-08-31T08:23:07;2.70;;;2.17;;
14121;SDS011;7139;48.114;11.442;2023-08-31T08:25:34;2.73;;;2.40;;
14121;SDS011;7139;48.114;11.442;2023-08-31T08:28:00;2.77;;;2.40;;
14121;SDS011;7139;48.114;11.442;2023-08-31T08:30:28;3.07;;;2.10;;
14121;SDS011;7139;48.114;11.442;2023-08-31T08:32:56;4.63;;;2.33;;
14121;SDS011;7139;48.114;11.442;2023-08-31T08:35:23;3.77;;;2.33;;
14121;SDS011;7139;48.114;11.442;2023-08-31T08:37:51;3.50;;;2.07;;
14121;SDS011;7139;48.114;11.442;2023-08-31T08:40:18;3.10;;;2.30;;
14121;SDS011;7139;48.114;11.442;2023-08-31T08:42:46;3.13;;;2.37;;
14121;SDS011;7139;48.114;11.442;2023-08-31T08:45:13;2.90;;;2.33;;
14121;SDS011;7139;48.114;11.442;2023-08-31T08:47:42;3.40;;;2.13;;
14121;SDS011;7139;48.114;11.442;2023-08-31T08:50:11;2.80;;;2.20;;
14121;SDS011;7139;48.114;11.442;2023-08-31T08:52:38;3.77;;;2.30;;
14121;SDS011;7139;48.114;11.442;2023-08-31T08:55:05;2.47;;;2.27;;
14121;SDS011;7139;48.114;11.442;2023-08-31T08:57:33;3.37;;;2.20;;
14121;SDS011;7139;48.114;11.442;2023-08-31T09:00:00;3.37;;;2.40;;
14121;SDS011;7139;48.114;11.442;2023-08-31T09:02:28;3.23;;;2.30;;
14121;SDS011;7139;48.114;11.442;2023-08-31T09:04:55;4.57;;;2.20;;
14121;SDS011;7139;48.114;11.442;2023-08-31T09:07:23;3.77;;;2.20;;
14121;SDS011;7139;48.114;11.442;2023-08-31T09:09:50;2.33;;;2.07;;
14121;SDS011;7139;48.114;11.442;2023-08-31T09:12:18;4.07;;;2.30;;
14121;SDS011;7139;48.114;11.442;2023-08-31T09:14:56;2.50;;;1.87;;
14121;SDS011;7139;48.114;11.442;2023-08-31T09:17:24;2.70;;;2.17;;
14121;SDS011;7139;48.114;11.442;2023-08-31T09:19:58;2.40;;;2.03;;
14121;SDS011;7139;48.114;11.442;2023-08-31T09:22:27;3.33;;;2.00;;
14121;SDS011;7139;48.114;11.442;2023-08-31T09:24:54;4.00;;;2.07;;
14121;SDS011;7139;48.114;11.442;2023-08-31T09:27:20;2.33;;;2.00;;
14121;SDS011;7139;48.114;11.442;2023-08-31T09:29:48;3.87;;;2.20;;
14121;SDS011;7139;48.114;11.442;2023-08-31T09:32:16;2.20;;;2.00;;
14121;SDS011;7139;48.114;11.442;2023-08-31T09:34:43;3.93;;;2.53;;
14121;SDS011;7139;48.114;11.442;2023-08-31T09:37:10;2.93;;;2.00;;
14121;SDS011;7139;48.114;11.442;2023-08-31T09:39:38;2.73;;;2.03;;
14121;SDS011;7139;48.114;11.442;2023-08-31T09:42:05;3.63;;;2.40;;
14121;SDS011;7139;48.114;11.442;2023-08-31T09:47:06;2.43;;;2.17;;
14121;SDS011;7139;48.114;11.442;2023-08-31T09:49:33;2.87;;;2.07;;
14121;SDS011;7139;48.114;11.442;2023-08-31T09:52:01;2.57;;;2.00;;
14121;SDS011;7139;48.114;11.442;2023-08-31T09:54:29;2.43;;;2.17;;
14121;SDS011;7139;48.114;11.442;2023-08-31T09:56:59;4.03;;;2.07;;
14121;SDS011;7139;48.114;11.442;2023-08-31T09:59:27;3.00;;;1.97;;
14121;SDS011;7139;48.114;11.442;2023-08-31T10:01:54;2.20;;;2.00;;
14121;SDS011;7139;48.114;11.442;2023-08-31T10:04:22;2.83;;;2.00;;
14121;SDS011;7139;48.114;11.442;2023-08-31T10:06:49;2.30;;;1.67;;
14121;SDS011;7139;48.114;11.442;2023-08-31T10:09:17;2.20;;;2.00;;
14121;SDS011;7139;48.114;11.442;2023-08-31T10:11:44;2.80;;;2.20;;
14121;SDS011;7139;48.114;11.442;2023-08-31T10:14:13;2.40;;;2.20;;
14121;SDS011;7139;48.114;11.442;2023-08-31T10:16:48;2.67;;;2.10;;
14121;SDS011;7139;48.114;11.442;2023-08-31T10:19:17;2.83;;;1.87;;
14121;SDS011;7139;48.114;11.442;2023-08-31T10:21:44;2.90;;;2.17;;
14121;SDS011;7139;48.114;11.442;2023-08-31T10:24:18;2.87;;;2.23;;
14121;SDS011;7139;48.114;11.442;2023-08-31T10:35:57;3.10;;;2.10;;
14121;SDS011;7139;48.114;11.442;2023-08-31T10:38:24;4.10;;;2.23;;
14121;SDS011;7139;48.114;11.442;2023-08-31T10:43:55;2.30;;;1.97;;
14121;SDS011;7139;48.114;11.442;2023-08-31T10:46:27;2.47;;;2.23;;
14121;SDS011;7139;48.114;11.442;2023-08-31T10:48:56;1.93;;;1.83;;
14121;SDS011;7139;48.114;11.442;2023-08-31T10:51:24;3.30;;;2.50;;
14121;SDS011;7139;48.114;11.442;2023-08-31T10:53:52;2.20;;;2.00;;
14121;SDS011;7139;48.114;11.442;2023-08-31T10:56:30;1.90;;;1.80;;
14121;SDS011;7139;48.114;11.442;2023-08-31T10:58:58;2.50;;;2.10;;
14121;SDS011;7139;48.114;11.442;2023-08-31T11:04:21;2.77;;;2.30;;
14121;SDS011;7139;48.114;11.442;2023-08-31T11:06:48;3.90;;;2.83;;
14121;SDS011;7139;48.114;11.442;2023-08-31T11:09:19;4.73;;;4.13;;
14121;SDS011;7139;48.114;11.442;2023-08-31T11:11:46;4.20;;;2.93;;
14121;SDS011;7139;48.114;11.442;2023-08-31T11:14:14;5.23;;;4.33;;
14121;SDS011;7139;48.114;11.442;2023-08-31T11:16:42;5.20;;;2.93;;
14121;SDS011;7139;48.114;11.442;2023-08-31T11:19:10;6.03;;;3.47;;
14121;SDS011;7139;48.114;11.442;2023-08-31T11:21:37;5.93;;;3.10;;
14121;SDS011;7139;48.114;11.442;2023-08-31T11:24:04;5.80;;;2.93;;
14121;SDS011;7139;48.114;11.442;2023-08-31T11:26:33;7.17;;;3.40;;
14121;SDS011;7139;48.114;11.442;2023-08-31T11:29:00;5.70;;;2.70;;
14121;SDS011;7139;48.114;11.442;2023-08-31T11:34:02;5.23;;;3.50;;
14121;SDS011;7139;48.114;11.442;2023-08-31T11:36:32;4.43;;;2.93;;
14121;SDS011;7139;48.114;11.442;2023-08-31T11:39:00;4.83;;;3.50;;
14121;SDS011;7139;48.114;11.442;2023-08-31T11:41:30;5.30;;;3.87;;
14121;SDS011;7139;48.114;11.442;2023-08-31T11:43:57;3.13;;;2.50;;
14121;SDS011;7139;48.114;11.442;2023-08-31T11:46:24;4.17;;;3.07;;
14121;SDS011;7139;48.114;11.442;2023-08-31T11:48:51;3.57;;;2.97;;
14121;SDS011;7139;48.114;11.442;2023-08-31T11:51:19;3.90;;;2.50;;
14121;SDS011;7139;48.114;11.442;2023-08-31T11:53:47;6.63;;;3.40;;
14121;SDS011;7139;48.114;11.442;2023-08-31T11:56:14;5.10;;;3.30;;
14121;SDS011;7139;48.114;11.442;2023-08-31T11:58:41;3.87;;;2.80;;
14121;SDS011;7139;48.114;11.442;2023-08-31T12:01:11;4.40;;;3.13;;
14121;SDS011;7139;48.114;11.442;2023-08-31T12:03:44;3.47;;;2.37;;
14121;SDS011;7139;48.114;11.442;2023-08-31T12:06:12;4.00;;;2.60;;
14121;SDS011;7139;48.114;11.442;2023-08-31T12:08:41;3.63;;;2.27;;
14121;SDS011;7139;48.114;11.442;2023-08-31T12:11:20;3.83;;;2.20;;
14121;SDS011;7139;48.114;11.442;2023-08-31T12:13:47;4.60;;;2.37;;
14121;SDS011;7139;48.114;11.442;2023-08-31T12:16:16;3.17;;;1.97;;
14121;SDS011;7139;48.114;11.442;2023-08-31T12:18:43;4.63;;;2.40;;
14121;SDS011;7139;48.114;11.442;2023-08-31T12:21:10;5.73;;;2.40;;
14121;SDS011;7139;48.114;11.442;2023-08-31T12:23:37;2.73;;;2.30;;
14121;SDS011;7139;48.114;11.442;2023-08-31T12:26:05;3.27;;;2.30;;
14121;SDS011;7139;48.114;11.442;2023-08-31T12:28:34;3.03;;;2.30;;
14121;SDS011;7139;48.114;11.442;2023-08-31T12:31:01;3.63;;;2.40;;
14121;SDS011;7139;48.114;11.442;2023-08-31T12:33:27;4.03;;;3.10;;
14121;SDS011;7139;48.114;11.442;2023-08-31T12:35:54;4.70;;;3.37;;
14121;SDS011;7139;48.114;11.442;2023-08-31T12:38:21;4.93;;;2.73;;
14121;SDS011;7139;48.114;11.442;2023-08-31T12:40:47;3.77;;;3.10;;
14121;SDS011;7139;48.114;11.442;2023-08-31T12:43:14;3.70;;;2.37;;
14121;SDS011;7139;48.114;11.442;2023-08-31T12:45:43;3.13;;;2.20;;
14121;SDS011;7139;48.114;11.442;2023-08-31T12:48:10;5.27;;;2.53;;
14121;SDS011;7139;48.114;11.442;2023-08-31T12:50:37;3.17;;;2.20;;
14121;SDS011;7139;48.114;11.442;2023-08-31T12:53:03;3.83;;;2.30;;
14121;SDS011;7139;48.114;11.442;2023-08-31T12:55:30;3.83;;;2.30;;
14121;SDS011;7139;48.114;11.442;2023-08-31T12:57:57;2.30;;;2.10;;
14121;SDS011;7139;48.114;11.442;2023-08-31T13:00:24;4.43;;;2.60;;
14121;SDS011;7139;48.114;11.442;2023-08-31T13:02:53;3.70;;;2.30;;
14121;SDS011;7139;48.114;11.442;2023-08-31T13:05:20;3.53;;;2.47;;
14121;SDS011;7139;48.114;11.442;2023-08-31T13:07:47;4.13;;;2.20;;
14121;SDS011;7139;48.114;11.442;2023-08-31T13:10:14;3.40;;;2.20;;
14121;SDS011;7139;48.114;11.442;2023-08-31T13:12:41;5.13;;;2.40;;
14121;SDS011;7139;48.114;11.442;2023-08-31T13:15:07;4.10;;;2.40;;
14121;SDS011;7139;48.114;11.442;2023-08-31T13:17:35;4.63;;;2.70;;
14121;SDS011;7139;48.114;11.442;2023-08-31T13:20:03;4.97;;;2.90;;
14121;SDS011;7139;48.114;11.442;2023-08-31T13:22:31;2.50;;;2.03;;
14121;SDS011;7139;48.114;11.442;2023-08-31T13:24:58;3.83;;;2.53;;
14121;SDS011;7139;48.114;11.442;2023-08-31T13:27:24;4.83;;;2.63;;
14121;SDS011;7139;48.114;11.442;2023-08-31T13:29:51;4.07;;;2.30;;
14121;SDS011;7139;48.114;11.442;2023-08-31T13:32:18;3.87;;;2.20;;
14121;SDS011;7139;48.114;11.442;2023-08-31T13:34:45;3.07;;;2.27;;
14121;SDS011;7139;48.114;11.442;2023-08-31T13:37:13;3.40;;;2.10;;
14121;SDS011;7139;48.114;11.442;2023-08-31T13:39:40;4.43;;;2.10;;
14121;SDS011;7139;48.114;11.442;2023-08-31T13:42:06;4.23;;;2.47;;
14121;SDS011;7139;48.114;11.442;2023-08-31T13:44:33;3.70;;;2.20;;
14121;SDS011;7139;48.114;11.442;2023-08-31T13:47:00;2.40;;;2.10;;
14121;SDS011;7139;48.114;11.442;2023-08-31T13:49:28;4.63;;;2.33;;
14121;SDS011;7139;48.114;11.442;2023-08-31T13:51:55;3.17;;;1.90;;
14121;SDS011;7139;48.114;11.442;2023-08-31T13:54:23;3.20;;;2.10;;
14121;SDS011;7139;48.114;11.442;2023-08-31T13:56:50;4.50;;;2.37;;
14121;SDS011;7139;48.114;11.442;2023-08-31T13:59:17;4.13;;;2.20;;
14121;SDS011;7139;48.114;11.442;2023-08-31T14:01:44;3.27;;;2.20;;
14121;SDS011;7139;48.114;11.442;2023-08-31T14:04:11;2.90;;;2.30;;
14121;SDS011;7139;48.114;11.442;2023-08-31T14:06:37;2.43;;;2.10;;
14121;SDS011;7139;48.114;11.442;2023-08-31T14:09:04;5.03;;;2.40;;
14121;SDS011;7139;48.114;11.442;2023-08-31T14:11:34;3.73;;;2.30;;
14121;SDS011;7139;48.114;11.442;2023-08-31T14:14:02;4.87;;;2.33;;
14121;SDS011;7139;48.114;11.442;2023-08-31T14:16:31;3.37;;;2.23;;
14121;SDS011;7139;48.114;11.442;2023-08-31T14:18:58;3.63;;;2.30;;
14121;SDS011;7139;48.114;11.442;2023-08-31T14:21:25;4.27;;;2.23;;
14121;SDS011;7139;48.114;11.442;2023-08-31T14:23:52;4.90;;;2.43;;
14121;SDS011;7139;48.114;11.442;2023-08-31T14:26:20;4.10;;;2.10;;
14121;SDS011;7139;48.114;11.442;2023-08-31T14:28:49;3.37;;;2.37;;
14121;SDS011;7139;48.114;11.442;2023-08-31T14:31:17;3.50;;;2.37;;
14121;SDS011;7139;48.114;11.442;2023-08-31T14:33:44;3.30;;;2.10;;
14121;SDS011;7139;48.114;11.442;2023-08-31T14:36:11;4.90;;;2.50;;
14121;SDS011;7139;48.114;11.442;2023-08-31T14:38:41;4.00;;;1.97;;
14121;SDS011;7139;48.114;11.442;2023-08-31T14:41:10;5.57;;;2.27;;
14121;SDS011;7139;48.114;11.442;2023-08-31T14:43:37;3.50;;;2.47;;
14121;SDS011;7139;48.114;11.442;2023-08-31T14:46:05;6.27;;;2.93;;
14121;SDS011;7139;48.114;11.442;2023-08-31T14:48:32;3.27;;;2.23;;
14121;SDS011;7139;48.114;11.442;2023-08-31T14:51:00;3.03;;;2.10;;
14121;SDS011;7139;48.114;11.442;2023-08-31T14:53:27;3.17;;;2.30;;
14121;SDS011;7139;48.114;11.442;2023-08-31T14:55:54;3.37;;;2.80;;
14121;SDS011;7139;48.114;11.442;2023-08-31T14:58:21;3.90;;;2.47;;
14121;SDS011;7139;48.114;11.442;2023-08-31T15:00:48;2.53;;;2.10;;
14121;SDS011;7139;48.114;11.442;2023-08-31T15:03:16;2.47;;;2.00;;
14121;SDS011;7139;48.114;11.442;2023-08-31T15:05:42;3.00;;;2.10;;
14121;SDS011;7139;48.114;11.442;2023-08-31T15:08:09;3.97;;;2.30;;
14121;SDS011;7139;48.114;11.442;2023-08-31T15:10:37;4.53;;;2.50;;